Altus, OK (73521)

8:49 AM CDT on August 22, 2014 (GMT -0500)
Corbin & Russell Addition | Change Station
CLOSE
Current Station
Personal Weather Station
Location: Altus, OK
Elevation: 1407 ft
Nearby Weather Stations

Elev 1407 ft 34.65 °N, 99.34 °W | Updated 6 seconds ago

Clear
Clear
83.1 °F
Feels Like 86 °F
N
4.0
Wind Variable Wind from West
Gusts 9.0 mph

Today
High -- | Low -- °F
--% Chance of Precip.
Yesterday
High -- | Low -- °F
Precip. -- in
7:03 AM 8:16 PM
Waning Crescent, 8% visible
Pressure 29.95 in
Visibility 10.0 miles
Clouds Clear
Heat Index 86 °F
Dew Point 68 °F
Humidity 61%
Rainfall 0.00 in
Snow Depth Not available.
UV 1 out of 12
Pollen 9.40 out of 12
Air Quality Not available.
Flu Activity Not available.
METAR KLTS 221258Z AUTO 15006KT 10SM CLR 24/18 A3000 RMK AO2 SLP141 T02430177 $

More Conditions Fewer Conditions

Pressure 29.95 in
Visibility 10.0 miles
Clouds Clear
Heat Index 86 °F
Dew Point 68 °F
Humidity 61%
Rainfall 0.00 in
Snow Depth Not available.
UV 1 out of 12
Pollen 9.40 out of 12
Air Quality Not available.
Flu Activity Not available.
METAR KLTS 221258Z AUTO 15006KT 10SM CLR 24/18 A3000 RMK AO2 SLP141 T02430177 $

More Conditions Fewer Conditions

10-Day Weather Forecast

Almanac

Astronomy

Aug. 22, 2014 Rise Set
Actual Time 7:03 AM CDT 8:16 PM CDT
Civil Twilight 6:36 AM CDT 8:42 PM CDT
Nautical Twilight 6:05 AM CDT 9:14 PM CDT
Astronomical Twilight 5:32 AM CDT 9:46 PM CDT
Moon 4:30 AM CDT 6:23 PM CDT
Length of Visible Light 14h 05m
Length of Day
13h 13m
Tomorrow will be 1m 59s shorter.
Waning Crescent, 8% of the Moon is Illuminated
Today
Waning Crescent
Aug 25
New
Sep 2
First Quarter
Sep 8
Full
Sep 15
Last Quarter

Today's Extremes

State Highs State Lows

Community

WunderPhotos

Upload Photos

1,746,168 photos uploaded!

Nearby

Snow Depth

Station Depth Elevation
No new snow has been reported.

Earthquake Activity

City Distance Mag. Time & Date
No recent earthquake activity has been reported nearby.
Minimum magnitude displayed is 2.5.

Coastal Water Temperatures

Place Temperature
No Stations Reporting

Nearby Weather Stations